createdAt,value
2023-03-07T00:00:12.788Z,99174.75
2023-03-07T00:02:41.731Z,99172.06
2023-03-07T00:05:10.373Z,99178.38
2023-03-07T00:07:40.194Z,99179.19
2023-03-07T00:10:09.157Z,99176.97
2023-03-07T00:12:37.367Z,99172.50
2023-03-07T00:15:05.763Z,99175.56
2023-03-07T00:17:33.905Z,99172.22
2023-03-07T00:20:02.047Z,99166.31
2023-03-07T00:22:31.089Z,99167.47
2023-03-07T00:25:01.063Z,99169.69
2023-03-07T00:27:30.788Z,99170.78
2023-03-07T00:29:58.898Z,99170.25
2023-03-07T00:32:27.548Z,99168.56
2023-03-07T00:34:55.851Z,99173.16
2023-03-07T00:37:23.922Z,99176.06
2023-03-07T00:39:52.273Z,99169.63
2023-03-07T00:42:22.122Z,99171.44
2023-03-07T00:44:50.534Z,99169.47
2023-03-07T00:47:19.000Z,99161.09
2023-03-07T00:49:47.653Z,99153.41
2023-03-07T00:52:15.914Z,99157.03
2023-03-07T00:54:44.092Z,99160.38
2023-03-07T00:57:12.547Z,99157.72
2023-03-07T00:59:42.501Z,99155.91
2023-03-07T01:02:10.800Z,99151.16
2023-03-07T01:04:38.998Z,99154.53
2023-03-07T01:07:07.050Z,99157.06
2023-03-07T01:09:35.323Z,99154.53
2023-03-07T01:12:07.370Z,99147.97
2023-03-07T01:14:35.538Z,99143.63
2023-03-07T01:17:05.240Z,99134.53
2023-03-07T01:19:33.402Z,99133.81
2023-03-07T01:22:02.960Z,99141.38
2023-03-07T01:24:31.228Z,99142.09
2023-03-07T01:27:00.345Z,99134.66
2023-03-07T01:29:28.554Z,99124.88
2023-03-07T01:31:56.810Z,99128.22
2023-03-07T01:34:27.138Z,99120.97
2023-03-07T01:36:55.439Z,99118.03
2023-03-07T01:39:23.867Z,99124.75
2023-03-07T01:42:02.572Z,99122.63
2023-03-07T01:44:31.542Z,99123.88
2023-03-07T01:47:00.927Z,99118.44
2023-03-07T01:49:40.388Z,99123.47
2023-03-07T01:52:10.389Z,99120.53
2023-03-07T01:54:49.067Z,99115.91
2023-03-07T01:57:20.763Z,99128.91
2023-03-07T01:59:50.938Z,99122.63
2023-03-07T02:02:22.809Z,99112.28
2023-03-07T02:04:55.000Z,99116.34
2023-03-07T02:07:26.217Z,99115.63
2023-03-07T02:09:54.876Z,99112.28
2023-03-07T02:12:23.398Z,99110.28
2023-03-07T02:14:52.690Z,99112.81
2023-03-07T02:17:21.445Z,99112.94
2023-03-07T02:19:56.913Z,99107.50
2023-03-07T02:22:26.037Z,99108.34
2023-03-07T02:24:57.269Z,99110.00
2023-03-07T02:27:27.630Z,99112.66
2023-03-07T02:29:55.881Z,99110.00
2023-03-07T02:32:24.310Z,99094.03
2023-03-07T02:34:52.557Z,99098.69
2023-03-07T02:37:26.898Z,99102.31
2023-03-07T02:39:57.618Z,99099.66
2023-03-07T02:42:29.797Z,99095.44
2023-03-07T02:45:11.746Z,99094.63
2023-03-07T02:47:42.752Z,99094.63
2023-03-07T02:50:13.133Z,99093.06
2023-03-07T02:52:43.519Z,99090.41
2023-03-07T02:55:12.936Z,99085.94
2023-03-07T02:57:49.063Z,99088.59
2023-03-07T03:00:18.033Z,99087.59
2023-03-07T03:02:46.153Z,99080.75
2023-03-07T03:05:14.482Z,99088.72
2023-03-07T03:07:42.532Z,99078.94
2023-03-07T03:10:11.385Z,99075.56
2023-03-07T03:12:39.822Z,99071.66
2023-03-07T03:15:11.381Z,99070.81
2023-03-07T03:17:39.552Z,99070.81
2023-03-07T03:20:11.765Z,99074.44
2023-03-07T03:22:39.902Z,99075.56
2023-03-07T03:25:10.064Z,99073.06
2023-03-07T03:27:40.416Z,99075.03
2023-03-07T03:30:14.419Z,99075.03
2023-03-07T03:32:43.810Z,99081.03
2023-03-07T03:35:15.018Z,99080.34
2023-03-07T03:37:43.936Z,99077.00
2023-03-07T03:40:17.488Z,99080.63
2023-03-07T03:42:48.551Z,99078.13
2023-03-07T03:45:20.773Z,99074.59
2023-03-07T03:47:50.579Z,99069.41
2023-03-07T03:50:19.082Z,99075.59
2023-03-07T03:52:47.214Z,99064.97
2023-03-07T03:55:15.782Z,99066.91
2023-03-07T03:57:43.857Z,99068.88
2023-03-07T04:00:14.912Z,99074.19
2023-03-07T04:02:45.563Z,99070.81
2023-03-07T04:05:17.340Z,99055.16
2023-03-07T04:07:45.827Z,99060.47
2023-03-07T04:10:14.017Z,99060.47
2023-03-07T04:12:42.365Z,99058.78
2023-03-07T04:15:10.854Z,99058.78
2023-03-07T04:17:39.699Z,99063.56
2023-03-07T04:20:17.679Z,99056.84
2023-03-07T04:22:48.052Z,99064.28
2023-03-07T04:25:16.093Z,99067.19
2023-03-07T04:27:44.649Z,99063.84
2023-03-07T04:30:13.238Z,99059.78
2023-03-07T04:32:42.774Z,99057.41
2023-03-07T04:35:12.349Z,99051.50
2023-03-07T04:37:40.816Z,99050.97
2023-03-07T04:40:09.508Z,99050.38
2023-03-07T04:42:37.984Z,99058.09
2023-03-07T04:45:06.562Z,99042.41
2023-03-07T04:47:34.725Z,99047.16
2023-03-07T04:50:03.682Z,99032.75
2023-03-07T04:52:35.249Z,99034.84
2023-03-07T04:55:03.795Z,99028.84
2023-03-07T04:57:32.098Z,99027.16
2023-03-07T05:00:00.464Z,99030.78
2023-03-07T05:02:29.531Z,99033.28
2023-03-07T05:04:58.645Z,99025.31
2023-03-07T05:07:26.803Z,99031.31
2023-03-07T05:09:56.484Z,99027.13
2023-03-07T05:12:25.002Z,99030.47
2023-03-07T05:14:53.966Z,99027.38
2023-03-07T05:17:22.680Z,99031.88
2023-03-07T05:19:50.793Z,99033.25
2023-03-07T05:22:19.542Z,99026.53
2023-03-07T05:24:47.690Z,99025.56
2023-03-07T05:27:17.687Z,99026.66
2023-03-07T05:29:45.818Z,99025.97
2023-03-07T05:32:13.867Z,99027.06
2023-03-07T05:34:42.069Z,99023.97
2023-03-07T05:37:10.758Z,99026.91
2023-03-07T05:39:39.093Z,99025.94
2023-03-07T05:42:07.681Z,99028.13
2023-03-07T05:44:39.213Z,99021.28
2023-03-07T05:47:07.634Z,99024.78
2023-03-07T05:49:37.034Z,99024.94
2023-03-07T05:52:05.700Z,99030.38
2023-03-07T05:54:34.002Z,99021.69
2023-03-07T05:57:02.748Z,99014.00
2023-03-07T05:59:30.788Z,99012.31
2023-03-07T06:02:00.321Z,99009.66
2023-03-07T06:04:28.547Z,99014.53
2023-03-07T06:06:56.581Z,99013.53
2023-03-07T06:09:26.146Z,99009.66
2023-03-07T06:11:56.303Z,99010.19
2023-03-07T06:14:24.909Z,99014.41
2023-03-07T06:16:53.048Z,99011.16
2023-03-07T06:19:22.885Z,99012.41
2023-03-07T06:21:52.247Z,99014.22
2023-03-07T06:24:21.079Z,99023.88
2023-03-07T06:26:49.262Z,99034.38
2023-03-07T06:29:20.668Z,99030.84
2023-03-07T06:31:48.820Z,99031.56
2023-03-07T06:34:17.226Z,99037.00
2023-03-07T06:36:49.085Z,99037.00
2023-03-07T06:39:21.294Z,99025.53
2023-03-07T06:41:52.358Z,99022.19
2023-03-07T06:44:20.440Z,99025.41
2023-03-07T06:46:48.803Z,99035.06
2023-03-07T06:49:20.066Z,99028.06
2023-03-07T06:51:51.290Z,99031.72
2023-03-07T06:54:19.588Z,99040.63
2023-03-07T06:56:48.053Z,99043.97
2023-03-07T06:59:20.856Z,99045.66
2023-03-07T07:01:49.442Z,99035.06
2023-03-07T07:04:19.819Z,99037.72
2023-03-07T07:06:48.944Z,99042.41
2023-03-07T07:09:19.434Z,99044.66
2023-03-07T07:11:47.771Z,99037.53
2023-03-07T07:14:15.951Z,99033.91
2023-03-07T07:16:44.271Z,99039.22
2023-03-07T07:19:12.421Z,99044.53
2023-03-07T07:21:40.564Z,99044.25
2023-03-07T07:24:08.800Z,99028.19
2023-03-07T07:26:38.621Z,99036.03
2023-03-07T07:29:06.831Z,99045.41
2023-03-07T07:31:34.953Z,99048.78
2023-03-07T07:34:04.009Z,99053.13
2023-03-07T07:36:34.472Z,99055.50
2023-03-07T07:39:04.281Z,99065.81
2023-03-07T07:41:33.297Z,99052.41
2023-03-07T07:44:03.171Z,99056.59
2023-03-07T07:46:38.984Z,99054.78
2023-03-07T07:49:08.973Z,99050.47
2023-03-07T07:51:37.521Z,99053.13
2023-03-07T07:54:05.783Z,99061.78
2023-03-07T07:56:34.325Z,99062.75
2023-03-07T07:59:04.109Z,99058.84
2023-03-07T08:01:32.121Z,99065.41
2023-03-07T08:04:00.229Z,99066.81
2023-03-07T08:06:29.162Z,99072.84
2023-03-07T08:08:57.264Z,99066.28
2023-03-07T08:11:25.737Z,99074.69
2023-03-07T08:13:54.344Z,99080.59
2023-03-07T08:16:24.310Z,99077.53
2023-03-07T08:18:53.448Z,99072.06
2023-03-07T08:21:21.791Z,99073.34
2023-03-07T08:23:49.898Z,99072.81
2023-03-07T08:26:18.922Z,99069.75
2023-03-07T08:28:48.015Z,99071.56
2023-03-07T08:31:17.134Z,99067.81
2023-03-07T08:33:47.312Z,99073.66
2023-03-07T08:36:15.845Z,99075.22
2023-03-07T08:38:44.093Z,99070.03
2023-03-07T08:41:12.389Z,99061.53
2023-03-07T08:43:40.578Z,99067.00
2023-03-07T08:46:09.197Z,99066.88
2023-03-07T08:48:37.248Z,99071.38
2023-03-07T08:51:08.154Z,99060.75
2023-03-07T08:53:36.197Z,99063.00
2023-03-07T08:56:07.470Z,99064.66
2023-03-07T08:58:35.804Z,99060.75
2023-03-07T09:01:05.048Z,99055.16
2023-03-07T09:03:33.421Z,99068.16
2023-03-07T09:06:02.095Z,99059.72
2023-03-07T09:08:31.647Z,99062.38
2023-03-07T09:11:00.570Z,99063.31
2023-03-07T09:13:28.605Z,99069.34
2023-03-07T09:15:56.843Z,99063.75
2023-03-07T09:18:24.872Z,99055.75
2023-03-07T09:20:52.957Z,99052.09
2023-03-07T09:23:21.074Z,99051.69
2023-03-07T09:25:50.931Z,99051.69
2023-03-07T09:28:19.085Z,99049.03
2023-03-07T09:30:47.712Z,99036.28
2023-03-07T09:33:15.857Z,99040.50
2023-03-07T09:35:44.199Z,99048.09
2023-03-07T09:38:12.294Z,99048.09
2023-03-07T09:40:40.862Z,99050.63
2023-03-07T09:43:16.673Z,99053.13
2023-03-07T09:46:01.479Z,99052.97
2023-03-07T09:48:51.390Z,99053.66
2023-03-07T09:51:22.615Z,99063.63
2023-03-07T09:53:54.183Z,99070.78
2023-03-07T09:56:25.375Z,99068.78
2023-03-07T09:59:02.554Z,99067.09
2023-03-07T10:01:34.362Z,99078.16
2023-03-07T10:04:04.635Z,99059.81
2023-03-07T10:06:35.383Z,99058.63
2023-03-07T10:09:05.399Z,99058.00
2023-03-07T10:11:45.756Z,99071.75
2023-03-07T10:14:21.779Z,99063.44
2023-03-07T10:16:52.264Z,99053.16
2023-03-07T10:19:25.009Z,99053.22
2023-03-07T10:22:00.313Z,99042.13
2023-03-07T10:24:40.510Z,99047.00
2023-03-07T10:27:09.859Z,99044.97
2023-03-07T10:29:44.094Z,99030.81
2023-03-07T10:32:22.957Z,99027.50
2023-03-07T10:34:56.869Z,99030.88
2023-03-07T10:37:30.444Z,99033.72
2023-03-07T10:40:04.478Z,99043.09
2023-03-07T10:42:36.559Z,99040.13
2023-03-07T10:45:06.759Z,99026.78
2023-03-07T10:47:35.109Z,99022.41
2023-03-07T10:50:09.455Z,99013.03
2023-03-07T10:52:41.694Z,99010.81
2023-03-07T10:55:34.350Z,98997.72
2023-03-07T10:58:13.766Z,99009.13
2023-03-07T11:00:44.521Z,99008.81
2023-03-07T11:03:27.189Z,99011.91
2023-03-07T11:05:55.866Z,99012.56
2023-03-07T11:08:28.412Z,99020.09
2023-03-07T11:10:56.760Z,99012.03
2023-03-07T11:13:25.654Z,99012.91
2023-03-07T11:16:11.384Z,99013.03
2023-03-07T11:18:42.209Z,99006.84
2023-03-07T11:21:27.140Z,99012.81
2023-03-07T11:23:59.542Z,99004.38
2023-03-07T11:26:29.869Z,98998.88
2023-03-07T11:29:05.688Z,99005.97
2023-03-07T11:31:36.764Z,99004.22
2023-03-07T11:34:08.880Z,98997.78
2023-03-07T11:36:38.210Z,99003.13
2023-03-07T11:39:08.867Z,98990.16
2023-03-07T11:41:37.435Z,99000.38
2023-03-07T11:44:16.974Z,99004.72
2023-03-07T11:46:54.584Z,98997.34
2023-03-07T11:49:27.884Z,99003.66
2023-03-07T11:52:02.256Z,98999.91
2023-03-07T11:54:36.239Z,98992.41
2023-03-07T11:57:09.372Z,98994.28
2023-03-07T11:59:50.295Z,98988.31
2023-03-07T12:02:30.714Z,98986.25
2023-03-07T12:05:07.169Z,98983.91
2023-03-07T12:07:45.833Z,98982.78
2023-03-07T12:10:19.726Z,98979.16
2023-03-07T12:12:54.948Z,98977.22
2023-03-07T12:15:28.417Z,98977.38
2023-03-07T12:18:05.356Z,98975.44
2023-03-07T12:20:39.077Z,98972.44
2023-03-07T12:23:12.076Z,98971.41
2023-03-07T12:25:43.335Z,98968.47
2023-03-07T12:28:15.000Z,98970.47
2023-03-07T12:30:50.546Z,98972.56
2023-03-07T12:33:24.280Z,98975.63
2023-03-07T12:35:56.719Z,98977.38
2023-03-07T12:38:30.369Z,98964.88
2023-03-07T12:41:01.585Z,98971.53
2023-03-07T12:43:34.826Z,98977.28
2023-03-07T12:46:11.045Z,98973.88
2023-03-07T12:48:42.906Z,98950.00
2023-03-07T12:51:16.297Z,98962.69
2023-03-07T12:53:48.293Z,98957.69
2023-03-07T12:56:19.073Z,98946.28
2023-03-07T12:58:50.324Z,98953.59
2023-03-07T13:01:20.843Z,98945.91
2023-03-07T13:03:55.066Z,98942.34
2023-03-07T13:06:24.406Z,98940.34
2023-03-07T13:08:54.643Z,98931.09
2023-03-07T13:11:24.003Z,98932.56
2023-03-07T13:13:53.944Z,98931.53
2023-03-07T13:16:41.692Z,98940.28
2023-03-07T13:19:40.433Z,98936.63
2023-03-07T13:22:41.428Z,98936.34
2023-03-07T13:25:29.231Z,98935.56
2023-03-07T13:27:58.217Z,98933.53
2023-03-07T13:30:26.872Z,98924.66
2023-03-07T13:32:56.850Z,98928.44
2023-03-07T13:35:46.496Z,98926.00
2023-03-07T13:38:31.736Z,98921.38
2023-03-07T13:41:00.483Z,98925.97
2023-03-07T13:43:56.852Z,98912.03
2023-03-07T13:46:43.044Z,98912.91
2023-03-07T13:49:11.319Z,98906.34
2023-03-07T13:51:39.979Z,98905.03
2023-03-07T13:54:12.915Z,98914.22
2023-03-07T13:56:42.911Z,98909.91
2023-03-07T13:59:20.501Z,98912.06
2023-03-07T14:01:51.071Z,98904.78
2023-03-07T14:04:37.096Z,98901.06
2023-03-07T14:07:13.182Z,98899.78
2023-03-07T14:09:45.199Z,98897.78
2023-03-07T14:12:17.661Z,98896.66
2023-03-07T14:14:50.082Z,98887.13
2023-03-07T14:17:34.013Z,98881.94
2023-03-07T14:20:11.596Z,98888.38
2023-03-07T14:22:48.289Z,98887.31
2023-03-07T14:25:19.855Z,98880.94
2023-03-07T14:27:56.494Z,98874.00
2023-03-07T14:30:25.300Z,98872.44
2023-03-07T14:32:53.459Z,98875.69
2023-03-07T14:35:36.335Z,98876.06
2023-03-07T14:38:08.150Z,98875.38
2023-03-07T14:40:43.438Z,98873.69
2023-03-07T14:43:21.067Z,98862.66
2023-03-07T14:45:53.454Z,98858.03
2023-03-07T14:48:34.411Z,98861.97
2023-03-07T14:51:06.690Z,98857.03
2023-03-07T14:53:35.808Z,98842.66
2023-03-07T14:56:07.855Z,98852.91
2023-03-07T14:58:37.258Z,98851.34
2023-03-07T15:01:06.832Z,98845.69
2023-03-07T15:03:35.028Z,98833.00
2023-03-07T15:06:03.579Z,98843.09
2023-03-07T15:08:33.423Z,98832.63
2023-03-07T15:11:06.999Z,98825.84
2023-03-07T15:13:39.780Z,98829.91
2023-03-07T15:16:11.788Z,98834.31
2023-03-07T15:18:42.339Z,98832.22
2023-03-07T15:21:15.365Z,98828.94
2023-03-07T15:23:43.390Z,98824.06
2023-03-07T15:26:21.266Z,98823.88
2023-03-07T15:28:51.532Z,98822.66
2023-03-07T15:31:23.623Z,98821.06
2023-03-07T15:33:51.819Z,98823.63
2023-03-07T15:36:25.849Z,98818.78
2023-03-07T15:38:54.931Z,98810.16
2023-03-07T15:41:26.849Z,98820.66
2023-03-07T15:44:06.725Z,98814.75
2023-03-07T15:46:36.115Z,98813.56
2023-03-07T15:49:04.651Z,98805.59
2023-03-07T15:51:36.423Z,98808.00
2023-03-07T15:54:11.584Z,98800.94
2023-03-07T15:56:41.524Z,98800.81
2023-03-07T15:59:23.380Z,98793.47
2023-03-07T16:01:51.780Z,98798.91
2023-03-07T16:04:29.557Z,98798.56
2023-03-07T16:06:57.882Z,98801.88
2023-03-07T16:09:26.214Z,98802.56
2023-03-07T16:11:54.657Z,98795.84
2023-03-07T16:14:26.291Z,98791.47
2023-03-07T16:16:55.097Z,98792.44
2023-03-07T16:19:23.276Z,98793.41
2023-03-07T16:21:51.662Z,98791.59
2023-03-07T16:24:20.245Z,98785.41
2023-03-07T16:26:48.646Z,98789.09
2023-03-07T16:29:17.389Z,98774.38
2023-03-07T16:31:47.311Z,98770.25
2023-03-07T16:34:16.619Z,98768.53
2023-03-07T16:36:45.185Z,98769.91
2023-03-07T16:39:13.700Z,98757.72
2023-03-07T16:41:44.595Z,98753.91
2023-03-07T16:44:16.391Z,98744.72
2023-03-07T16:46:45.116Z,98747.91
2023-03-07T16:49:18.269Z,98746.13
2023-03-07T16:51:53.288Z,98739.63
2023-03-07T16:54:27.840Z,98741.28
2023-03-07T16:56:58.359Z,98739.97
2023-03-07T16:59:30.536Z,98732.25
2023-03-07T17:01:59.073Z,98733.59
2023-03-07T17:04:28.748Z,98734.78
2023-03-07T17:07:04.450Z,98727.78
2023-03-07T17:09:33.517Z,98727.31
2023-03-07T17:12:01.607Z,98730.00
2023-03-07T17:14:29.647Z,98729.19
2023-03-07T17:16:59.368Z,98725.53
2023-03-07T17:19:29.619Z,98726.53
2023-03-07T17:21:58.660Z,98713.53
2023-03-07T17:24:27.025Z,98715.56
2023-03-07T17:26:56.085Z,98716.22
2023-03-07T17:29:27.917Z,98711.22
2023-03-07T17:31:56.342Z,98695.66
2023-03-07T17:34:25.849Z,98704.03
2023-03-07T17:36:55.484Z,98699.16
2023-03-07T17:39:23.711Z,98701.81
2023-03-07T17:41:51.790Z,98697.44
2023-03-07T17:44:19.947Z,98702.09
2023-03-07T17:46:48.015Z,98691.03
2023-03-07T17:49:16.456Z,98692.53
2023-03-07T17:51:44.550Z,98687.16
2023-03-07T17:54:14.140Z,98681.94
2023-03-07T17:56:42.215Z,98676.56
2023-03-07T17:59:10.272Z,98685.22
2023-03-07T18:01:38.470Z,98688.53
2023-03-07T18:04:07.319Z,98689.47
2023-03-07T18:06:36.793Z,98687.06
2023-03-07T18:09:05.405Z,98688.66
2023-03-07T18:11:35.302Z,98685.25
2023-03-07T18:14:03.896Z,98676.84
2023-03-07T18:16:32.524Z,98683.19
2023-03-07T18:19:03.499Z,98684.09
2023-03-07T18:21:32.841Z,98687.16
2023-03-07T18:24:01.213Z,98684.88
2023-03-07T18:26:29.646Z,98679.59
2023-03-07T18:28:59.470Z,98666.22
2023-03-07T18:31:28.783Z,98677.94
2023-03-07T18:33:57.369Z,98671.25
2023-03-07T18:36:26.245Z,98679.81
2023-03-07T18:38:54.596Z,98676.75
2023-03-07T18:41:23.942Z,98672.22
2023-03-07T18:43:53.680Z,98666.50
2023-03-07T18:46:24.110Z,98673.78
2023-03-07T18:48:52.480Z,98665.97
2023-03-07T18:51:25.027Z,98670.72
2023-03-07T18:53:53.788Z,98668.78
2023-03-07T18:56:22.162Z,98664.72
2023-03-07T18:58:50.226Z,98658.41
2023-03-07T19:01:19.077Z,98665.41
2023-03-07T19:03:49.625Z,98664.28
2023-03-07T19:06:18.756Z,98655.25
2023-03-07T19:08:47.115Z,98655.75
2023-03-07T19:11:15.627Z,98652.63
2023-03-07T19:13:43.822Z,98643.13
2023-03-07T19:16:13.479Z,98639.63
2023-03-07T19:18:41.892Z,98644.50
2023-03-07T19:21:12.099Z,98644.66
2023-03-07T19:23:40.296Z,98642.38
2023-03-07T19:26:09.507Z,98638.28
2023-03-07T19:28:37.960Z,98632.56
2023-03-07T19:31:09.868Z,98632.41
2023-03-07T19:33:39.130Z,98627.81
2023-03-07T19:36:09.280Z,98621.63
2023-03-07T19:38:39.379Z,98619.81
2023-03-07T19:41:11.038Z,98617.00
2023-03-07T19:43:39.151Z,98618.66
2023-03-07T19:46:07.884Z,98611.38
2023-03-07T19:48:36.127Z,98602.38
2023-03-07T19:51:04.869Z,98608.88
2023-03-07T19:53:33.109Z,98603.91
2023-03-07T19:56:10.948Z,98600.13
2023-03-07T19:58:39.033Z,98592.84
2023-03-07T20:01:08.047Z,98592.69
2023-03-07T20:03:36.382Z,98587.56
2023-03-07T20:06:05.078Z,98593.91
2023-03-07T20:08:34.017Z,98585.13
2023-03-07T20:11:11.119Z,98591.13
2023-03-07T20:13:39.835Z,98585.34
2023-03-07T20:16:10.501Z,98581.69
2023-03-07T20:18:39.161Z,98579.03
2023-03-07T20:21:08.136Z,98570.06
2023-03-07T20:23:36.359Z,98563.75
2023-03-07T20:26:05.858Z,98567.72
2023-03-07T20:28:35.621Z,98558.75
2023-03-07T20:31:04.246Z,98545.44
2023-03-07T20:33:32.552Z,98536.09
2023-03-07T20:36:01.519Z,98537.78
2023-03-07T20:38:29.981Z,98535.13
2023-03-07T20:41:02.529Z,98525.97
2023-03-07T20:43:31.212Z,98525.13
2023-03-07T20:46:04.291Z,98520.63
2023-03-07T20:48:32.633Z,98519.00
2023-03-07T20:51:05.355Z,98519.16
2023-03-07T20:53:33.696Z,98513.81
2023-03-07T20:56:02.905Z,98507.81
2023-03-07T20:58:31.252Z,98506.59
2023-03-07T21:00:59.719Z,98505.47
2023-03-07T21:03:30.154Z,98502.81
2023-03-07T21:05:59.519Z,98492.47
2023-03-07T21:08:28.200Z,98484.19
2023-03-07T21:11:00.148Z,98483.47
2023-03-07T21:13:28.396Z,98472.03
2023-03-07T21:15:57.473Z,98472.03
2023-03-07T21:18:25.679Z,98462.69
2023-03-07T21:20:55.395Z,98467.34
2023-03-07T21:23:23.528Z,98464.84
2023-03-07T21:25:51.595Z,98458.66
2023-03-07T21:28:19.965Z,98448.19
2023-03-07T21:30:49.650Z,98448.50
2023-03-07T21:33:17.927Z,98438.84
2023-03-07T21:35:46.649Z,98434.69
2023-03-07T21:38:16.223Z,98426.84
2023-03-07T21:40:44.308Z,98420.19
2023-03-07T21:43:12.382Z,98419.34
2023-03-07T21:45:40.556Z,98416.19
2023-03-07T21:48:09.116Z,98410.00
2023-03-07T21:50:38.050Z,98411.03
2023-03-07T21:53:06.319Z,98408.53
2023-03-07T21:55:35.736Z,98408.53
2023-03-07T21:58:03.751Z,98406.53
2023-03-07T22:00:32.443Z,98405.00
2023-03-07T22:03:00.963Z,98403.34
2023-03-07T22:05:29.000Z,98395.84
2023-03-07T22:07:57.149Z,98396.53
2023-03-07T22:10:25.485Z,98391.53
2023-03-07T22:12:55.341Z,98388.50
2023-03-07T22:15:23.678Z,98383.50
2023-03-07T22:17:52.231Z,98388.50
2023-03-07T22:20:20.401Z,98388.50
2023-03-07T22:22:48.574Z,98383.19
2023-03-07T22:25:16.817Z,98376.88
2023-03-07T22:27:45.519Z,98365.88
2023-03-07T22:30:15.490Z,98371.66
2023-03-07T22:32:45.412Z,98365.81
2023-03-07T22:35:13.500Z,98369.31
2023-03-07T22:37:41.916Z,98370.16
2023-03-07T22:40:10.625Z,98364.84
2023-03-07T22:42:38.802Z,98365.50
2023-03-07T22:45:07.863Z,98355.88
2023-03-07T22:47:37.543Z,98360.66
2023-03-07T22:50:05.957Z,98356.84
2023-03-07T22:52:33.986Z,98355.19
2023-03-07T22:55:02.124Z,98349.53
2023-03-07T22:57:31.756Z,98350.34
2023-03-07T23:00:00.124Z,98345.34
2023-03-07T23:02:28.299Z,98352.13
2023-03-07T23:04:57.782Z,98346.78
2023-03-07T23:07:26.501Z,98342.31
2023-03-07T23:09:54.635Z,98329.50
2023-03-07T23:12:22.692Z,98336.16
2023-03-07T23:14:51.231Z,98334.50
2023-03-07T23:17:19.422Z,98327.50
2023-03-07T23:19:47.705Z,98330.69
2023-03-07T23:22:17.196Z,98322.72
2023-03-07T23:24:45.224Z,98326.69
2023-03-07T23:27:13.412Z,98323.88
2023-03-07T23:29:41.580Z,98313.88
2023-03-07T23:32:10.059Z,98315.53
2023-03-07T23:34:38.400Z,98307.03
2023-03-07T23:37:06.505Z,98310.22
2023-03-07T23:39:36.005Z,98304.38
2023-03-07T23:42:04.076Z,98307.19
2023-03-07T23:44:32.206Z,98300.53
2023-03-07T23:47:00.399Z,98296.03
2023-03-07T23:49:28.639Z,98289.91
2023-03-07T23:51:56.687Z,98287.41
2023-03-07T23:54:24.860Z,98278.59
2023-03-07T23:56:54.578Z,98287.19
2023-03-07T23:59:22.848Z,98284.69
